Time;durP1;ratioP1;P1;durP2;ratioP2;P2;SDS_P1;SDS_P2;PMS_P1;PMS_P2;Temp;Humidity;BMP_temperature;BMP_pressure;BME280_temperature;BME280_humidity;BME280_pressure;Samples;Min_cycle;Max_cycle;Signal;HPM_P1;HPM_P2
2021/07/12 00:01:14;;;;;;;2.90;2.33;;;28.10;69.60;;;;;;5104534;28;20790;-42
2021/07/12 00:03:40;;;;;;;2.73;2.50;;;28.10;69.60;;;;;;5104364;28;20028;-41
2021/07/12 00:06:06;;;;;;;2.50;2.30;;;28.10;69.60;;;;;;5103518;28;20028;-40
2021/07/12 00:08:32;;;;;;;2.80;2.10;;;28.10;69.60;;;;;;5086101;28;20032;-41
2021/07/12 00:10:58;;;;;;;3.10;2.33;;;28.10;69.60;;;;;;5104224;28;20092;-41
2021/07/12 00:13:25;;;;;;;2.22;2.03;;;28.10;69.60;;;;;;5103857;28;20057;-42
2021/07/12 00:15:51;;;;;;;3.20;2.07;;;28.00;69.70;;;;;;5104390;28;20107;-41
2021/07/12 00:18:18;;;;;;;2.55;2.13;;;28.00;69.80;;;;;;5104123;28;20039;-40
2021/07/12 00:20:44;;;;;;;2.13;2.00;;;28.00;69.80;;;;;;5103765;28;20408;-41
2021/07/12 00:23:10;;;;;;;2.97;2.00;;;28.00;69.60;;;;;;5103505;28;20116;-41
2021/07/12 00:25:36;;;;;;;2.60;2.40;;;28.00;69.70;;;;;;5094781;28;20020;-42
2021/07/12 00:28:02;;;;;;;2.20;2.00;;;28.00;69.70;;;;;;5103971;28;20038;-40
2021/07/12 00:30:29;;;;;;;2.30;2.10;;;28.00;69.70;;;;;;5103750;28;20534;-41
2021/07/12 00:32:56;;;;;;;2.88;2.10;;;28.00;69.80;;;;;;5103269;28;20058;-40
2021/07/12 00:35:22;;;;;;;;;;;28.00;69.80;;;;;;5104207;28;20028;-41
2021/07/12 00:37:48;;;;;;;2.42;2.08;;;27.90;69.70;;;;;;5103950;28;19926;-42
2021/07/12 00:40:16;;;;;;;2.13;1.93;;;27.90;69.70;;;;;;5103583;28;20032;-40
2021/07/12 00:42:42;;;;;;;2.20;2.00;;;27.90;69.70;;;;;;5103523;28;20289;-40
2021/07/12 00:45:17;;;;;;;1.92;1.80;;;27.90;69.60;;;;;;5103321;28;20028;-41
2021/07/12 00:47:43;;;;;;;2.30;2.10;;;27.90;69.70;;;;;;5086491;28;20036;-41
2021/07/12 00:50:10;;;;;;;1.92;1.80;;;27.90;69.70;;;;;;5103691;28;20123;-41
2021/07/12 00:52:36;;;;;;;2.65;2.05;;;27.90;69.60;;;;;;5103660;28;20099;-42
2021/07/12 00:55:13;;;;;;;2.97;2.13;;;27.90;69.60;;;;;;5102373;28;20020;-41
2021/07/12 00:57:41;;;;;;;1.98;1.77;;;27.90;69.60;;;;;;5103417;28;20028;-41
2021/07/12 01:00:08;;;;;;;2.10;1.90;;;27.90;69.70;;;;;;5103225;28;20071;-41
2021/07/12 01:02:34;;;;;;;2.15;1.95;;;27.90;69.70;;;;;;5103259;28;20036;-41
2021/07/12 01:05:01;;;;;;;2.60;1.80;;;27.90;69.70;;;;;;5103297;28;20023;-41
2021/07/12 01:07:27;;;;;;;1.88;1.77;;;27.80;69.60;;;;;;5085269;28;20032;-41
2021/07/12 01:09:53;;;;;;;2.00;1.88;;;27.80;69.60;;;;;;5103217;28;20036;-41
2021/07/12 01:12:41;;;;;;;2.60;1.93;;;27.80;69.60;;;;;;5068232;28;20058;-40
2021/07/12 01:15:14;;;;;;;2.58;1.88;;;27.80;69.60;;;;;;5084725;28;20032;-42
2021/07/12 01:17:59;;;;;;;2.22;2.03;;;27.80;69.60;;;;;;5085636;28;20035;-40
2021/07/12 01:21:13;;;;;;;2.40;1.77;;;27.80;69.60;;;;;;5102859;28;20042;-41
2021/07/12 01:24:01;;;;;;;2.33;1.90;;;27.80;69.60;;;;;;5000079;28;20606;-40
2021/07/12 01:26:54;;;;;;;2.65;2.00;;;27.80;69.70;;;;;;5000481;28;20033;-41
2021/07/12 01:29:37;;;;;;;2.55;1.80;;;27.80;69.70;;;;;;5000590;28;20169;-41
2021/07/12 01:32:06;;;;;;;1.98;1.77;;;27.70;69.60;;;;;;4984666;28;20065;-41
2021/07/12 01:34:42;;;;;;;2.80;2.10;;;27.70;69.60;;;;;;4999992;28;20050;-40
2021/07/12 01:37:17;;;;;;;2.03;1.80;;;27.70;69.60;;;;;;5000736;28;20037;-41
2021/07/12 01:39:49;;;;;;;2.17;1.98;;;27.70;69.60;;;;;;5000204;28;20113;-41
2021/07/12 01:42:27;;;;;;;2.25;2.00;;;27.70;69.60;;;;;;4984294;28;20030;-40
2021/07/12 01:44:58;;;;;;;;;;;27.70;69.60;;;;;;5000725;28;20034;-40
2021/07/12 01:47:38;;;;;;;2.13;1.70;;;27.70;69.60;;;;;;5000578;28;19934;-41
2021/07/12 01:50:26;;;;;;;2.00;1.80;;;27.70;69.60;;;;;;5000251;28;20065;-41
2021/07/12 01:53:34;;;;;;;2.10;1.90;;;27.70;69.70;;;;;;4986245;28;20050;-40
2021/07/12 01:56:07;;;;;;;2.30;1.83;;;27.60;69.70;;;;;;4973354;28;20178;-41
2021/07/12 01:59:14;;;;;;;2.42;1.90;;;27.60;69.70;;;;;;5062608;28;20032;-42
2021/07/12 02:01:40;;;;;;;2.22;1.85;;;27.60;69.70;;;;;;5000300;28;20035;-41
2021/07/12 02:04:07;;;;;;;2.47;1.77;;;27.60;69.70;;;;;;4984076;28;20042;-41
2021/07/12 02:06:37;;;;;;;2.23;1.90;;;27.60;69.60;;;;;;5000232;28;20026;-41
2021/07/12 02:09:04;;;;;;;1.90;1.80;;;27.60;69.60;;;;;;5000364;28;20069;-40
2021/07/12 02:11:30;;;;;;;3.10;1.90;;;27.60;69.60;;;;;;5000318;28;20023;-40
2021/07/12 02:13:57;;;;;;;1.95;1.67;;;27.60;69.60;;;;;;5000157;28;20121;-40
2021/07/12 02:16:23;;;;;;;2.03;1.60;;;27.60;69.60;;;;;;5000043;28;20101;-42
2021/07/12 02:18:49;;;;;;;2.90;1.63;;;27.50;69.50;;;;;;4983857;28;20268;-42
2021/07/12 02:21:15;;;;;;;2.47;1.63;;;27.50;69.50;;;;;;4984024;28;20455;-41
2021/07/12 02:23:41;;;;;;;1.90;1.63;;;27.50;69.40;;;;;;4999873;28;20050;-41
2021/07/12 02:26:09;;;;;;;3.85;1.80;;;27.50;69.50;;;;;;4983803;28;20532;-41
2021/07/12 02:28:36;;;;;;;2.20;2.00;;;27.50;69.50;;;;;;5000096;28;20059;-40
2021/07/12 02:31:02;;;;;;;1.85;1.65;;;27.50;69.50;;;;;;4987076;28;20753;-40
2021/07/12 02:33:28;;;;;;;1.77;1.60;;;27.50;69.40;;;;;;4987392;28;20073;-41
2021/07/12 02:35:54;;;;;;;2.00;1.80;;;27.50;69.40;;;;;;5039344;28;20032;-41
2021/07/12 02:38:21;;;;;;;1.92;1.60;;;27.50;69.40;;;;;;5084370;28;20020;-40
2021/07/12 02:40:47;;;;;;;1.80;1.70;;;27.40;69.40;;;;;;5067637;28;20028;-41
2021/07/12 02:43:13;;;;;;;1.73;1.57;;;27.40;69.50;;;;;;5084028;28;20060;-41
2021/07/12 02:45:39;;;;;;;2.30;1.73;;;27.40;69.50;;;;;;5083829;28;20036;-40
2021/07/12 02:48:06;;;;;;;2.23;1.77;;;27.40;69.50;;;;;;5084045;28;20029;-41
2021/07/12 02:50:32;;;;;;;2.35;1.75;;;27.40;69.60;;;;;;5084191;28;20257;-42
2021/07/12 02:53:08;;;;;;;2.93;1.90;;;27.40;69.50;;;;;;5085348;28;20028;-41
2021/07/12 02:55:34;;;;;;;2.63;1.73;;;27.40;69.50;;;;;;5085314;28;20753;-42
2021/07/12 02:58:00;;;;;;;2.07;1.73;;;27.30;69.50;;;;;;5085506;28;20024;-41
2021/07/12 03:00:26;;;;;;;2.13;1.93;;;27.30;69.50;;;;;;5085275;28;20236;-42
2021/07/12 03:02:52;;;;;;;2.35;1.60;;;27.30;69.40;;;;;;5085372;28;20325;-41
2021/07/12 03:05:19;;;;;;;2.50;1.80;;;27.30;69.40;;;;;;5085125;28;20043;-41
2021/07/12 03:08:07;;;;;;;2.00;1.80;;;27.30;69.40;;;;;;5085243;28;20055;-40
2021/07/12 03:10:48;;;;;;;2.17;1.70;;;27.30;69.30;;;;;;5085207;28;20781;-40
2021/07/12 03:13:59;;;;;;;3.08;1.90;;;27.30;69.30;;;;;;5084924;28;20046;-41
2021/07/12 03:16:25;;;;;;;2.75;1.70;;;27.20;69.20;;;;;;5022191;28;20066;-42
2021/07/12 03:18:54;;;;;;;3.50;1.80;;;27.20;69.20;;;;;;5022434;28;20057;-40
2021/07/12 03:21:20;;;;;;;2.60;2.00;;;27.20;69.20;;;;;;4989657;28;20029;-41
2021/07/12 03:23:47;;;;;;;2.20;2.00;;;27.20;69.20;;;;;;5005629;28;20042;-41
2021/07/12 03:26:13;;;;;;;2.50;2.20;;;27.20;69.10;;;;;;5005647;28;20093;-41
2021/07/12 03:28:39;;;;;;;4.13;1.90;;;27.20;69.10;;;;;;5005700;28;20033;-42
2021/07/12 03:31:06;;;;;;;4.73;1.70;;;27.20;69.10;;;;;;5005856;28;20053;-40
2021/07/12 03:33:32;;;;;;;2.05;1.77;;;27.20;68.90;;;;;;5018105;28;20054;-42
2021/07/12 03:35:58;;;;;;;1.88;1.40;;;27.20;69.00;;;;;;5021820;28;20033;-41
2021/07/12 03:38:24;;;;;;;1.90;1.70;;;27.20;69.10;;;;;;5022148;28;20629;-41
2021/07/12 03:40:51;;;;;;;2.35;1.80;;;27.20;69.10;;;;;;5021662;28;20034;-40
2021/07/12 03:43:17;;;;;;;1.70;1.60;;;27.10;68.90;;;;;;5021899;28;20065;-41
2021/07/12 03:45:51;;;;;;;3.73;1.73;;;27.20;69.00;;;;;;5021366;28;20054;-42
2021/07/12 03:48:17;;;;;;;2.08;1.77;;;27.10;68.90;;;;;;5021918;28;20128;-41
2021/07/12 03:50:43;;;;;;;3.43;1.73;;;27.10;69.60;;;;;;5021748;28;20034;-41
2021/07/12 03:53:09;;;;;;;1.87;1.50;;;27.10;68.90;;;;;;5041800;28;20037;-40
2021/07/12 03:55:35;;;;;;;4.50;1.88;;;27.10;68.90;;;;;;5064390;28;20028;-42
2021/07/12 03:58:03;;;;;;;2.22;1.73;;;27.10;68.90;;;;;;5063936;28;20029;-42
2021/07/12 04:00:29;;;;;;;2.25;1.65;;;27.00;69.70;;;;;;5063895;28;20029;-41
2021/07/12 04:02:56;;;;;;;1.88;1.63;;;27.10;69.00;;;;;;5064086;28;20099;-41
2021/07/12 04:05:27;;;;;;;1.90;1.63;;;27.00;68.90;;;;;;5063957;28;20036;-39
2021/07/12 04:07:53;;;;;;;1.73;1.30;;;27.00;69.10;;;;;;5062442;28;20284;-41
2021/07/12 04:10:20;;;;;;;1.70;1.60;;;27.00;69.00;;;;;;5063814;28;20025;-41
2021/07/12 04:12:46;;;;;;;1.88;1.75;;;27.00;69.00;;;;;;5063722;28;20032;-41
2021/07/12 04:15:13;;;;;;;2.08;1.55;;;27.00;69.00;;;;;;5062222;28;20025;-40
2021/07/12 04:17:40;;;;;;;2.22;1.70;;;26.90;68.90;;;;;;5062386;28;20170;-42
2021/07/12 04:20:06;;;;;;;;;;;26.90;68.80;;;;;;5064116;28;20040;-41
2021/07/12 04:22:33;;;;;;;1.52;1.30;;;26.90;68.80;;;;;;5063494;28;20266;-41
2021/07/12 04:24:59;;;;;;;4.33;1.60;;;26.90;68.90;;;;;;5063580;28;20036;-41
2021/07/12 04:27:25;;;;;;;1.90;1.70;;;26.90;68.90;;;;;;5063639;28;20119;-41
2021/07/12 04:29:51;;;;;;;2.17;1.60;;;26.90;68.80;;;;;;5063351;28;20052;-41
2021/07/12 04:32:17;;;;;;;2.75;1.58;;;26.90;68.80;;;;;;5068091;28;20057;-41
2021/07/12 04:34:44;;;;;;;2.13;1.67;;;26.90;68.80;;;;;;5083569;28;20024;-41
2021/07/12 04:37:10;;;;;;;2.00;1.80;;;26.90;68.70;;;;;;5083513;28;20024;-40
2021/07/12 04:39:36;;;;;;;2.40;1.80;;;26.90;68.70;;;;;;5083516;28;20093;-41
2021/07/12 04:42:02;;;;;;;2.17;1.52;;;26.80;68.60;;;;;;5083126;28;20025;-42
2021/07/12 04:44:28;;;;;;;4.63;1.65;;;26.80;68.50;;;;;;5083033;28;20127;-42
2021/07/12 04:46:57;;;;;;;1.90;1.53;;;26.80;68.60;;;;;;5083318;28;20028;-40
2021/07/12 04:49:23;;;;;;;3.65;1.70;;;26.80;68.60;;;;;;5083301;28;20029;-42
2021/07/12 04:51:49;;;;;;;1.50;1.40;;;26.80;68.50;;;;;;5082644;28;20032;-41
2021/07/12 04:54:15;;;;;;;2.33;1.70;;;26.80;68.70;;;;;;5083148;28;20025;-41
2021/07/12 04:56:42;;;;;;;2.17;1.45;;;26.80;68.70;;;;;;5083050;28;20032;-42
2021/07/12 04:59:10;;;;;;;2.10;1.80;;;26.80;68.70;;;;;;5083056;28;20034;-41
2021/07/12 05:01:36;;;;;;;1.80;1.45;;;26.70;68.70;;;;;;5082656;28;20032;-41
2021/07/12 05:04:05;;;;;;;2.17;1.25;;;26.80;68.70;;;;;;5083124;28;20054;-41
2021/07/12 05:06:32;;;;;;;1.58;1.48;;;26.70;68.70;;;;;;5083110;28;20032;-40
2021/07/12 05:08:58;;;;;;;3.45;1.63;;;26.70;68.70;;;;;;5082920;28;20093;-41
2021/07/12 05:11:25;;;;;;;1.70;1.50;;;26.70;68.80;;;;;;5082902;28;20025;-42
2021/07/12 05:13:51;;;;;;;2.28;1.50;;;26.70;68.80;;;;;;5081333;28;20021;-40
2021/07/12 05:16:18;;;;;;;4.65;1.60;;;26.70;68.90;;;;;;5082454;28;20541;-41
2021/07/12 05:18:44;;;;;;;1.63;1.48;;;26.70;68.80;;;;;;5082983;28;20029;-42
2021/07/12 05:21:10;;;;;;;1.95;1.52;;;26.70;68.70;;;;;;5081011;28;20051;-41
2021/07/12 05:23:37;;;;;;;2.00;1.30;;;26.60;68.40;;;;;;5082500;28;20051;-41
2021/07/12 05:26:03;;;;;;;;;;;26.60;68.50;;;;;;5083256;28;20492;-41
2021/07/12 05:28:29;;;;;;;3.45;1.77;;;26.60;68.50;;;;;;5082876;28;19915;-40
2021/07/12 05:30:56;;;;;;;1.57;1.47;;;26.60;68.40;;;;;;5082277;28;20024;-41
2021/07/12 05:33:22;;;;;;;1.90;1.80;;;26.60;68.50;;;;;;5097941;28;20056;-42
2021/07/12 05:35:48;;;;;;;1.80;1.50;;;26.60;68.40;;;;;;5102988;28;20028;-42
2021/07/12 05:38:14;;;;;;;1.23;1.13;;;26.60;68.40;;;;;;5102933;28;20103;-42
2021/07/12 05:40:40;;;;;;;1.75;1.63;;;26.60;68.60;;;;;;5084672;28;20089;-41
2021/07/12 05:43:08;;;;;;;2.25;1.52;;;26.50;68.60;;;;;;5102609;28;20032;-41
2021/07/12 05:45:35;;;;;;;1.35;1.25;;;26.50;68.50;;;;;;5102733;28;20056;-42
2021/07/12 05:48:01;;;;;;;3.30;1.55;;;26.50;68.50;;;;;;5103115;28;20036;-41
2021/07/12 05:50:27;;;;;;;1.60;1.50;;;26.50;68.60;;;;;;5102773;28;20044;-41
2021/07/12 05:52:53;;;;;;;1.30;1.20;;;26.50;68.50;;;;;;5102540;28;20029;-42
2021/07/12 05:55:20;;;;;;;2.38;1.50;;;26.50;68.50;;;;;;5102846;28;20028;-41
2021/07/12 05:57:46;;;;;;;1.95;1.30;;;26.50;68.60;;;;;;5102898;28;20056;-42
2021/07/12 06:00:13;;;;;;;3.30;1.25;;;26.40;68.40;;;;;;5102729;28;20020;-40
2021/07/12 06:02:42;;;;;;;4.22;1.55;;;26.40;68.50;;;;;;5102403;28;20032;-42
2021/07/12 06:05:10;;;;;;;1.77;1.63;;;26.40;68.50;;;;;;5066544;28;20048;-41
2021/07/12 06:07:36;;;;;;;2.83;1.90;;;26.40;68.60;;;;;;5086415;28;20017;-42
2021/07/12 06:10:04;;;;;;;2.30;1.50;;;26.40;68.70;;;;;;5086386;28;20024;-42
2021/07/12 06:12:30;;;;;;;1.75;1.38;;;26.40;68.60;;;;;;5088530;28;20028;-42
2021/07/12 06:14:56;;;;;;;1.92;1.30;;;26.40;68.60;;;;;;5106450;28;20081;-42
2021/07/12 06:17:22;;;;;;;2.03;1.30;;;26.40;68.60;;;;;;5106742;28;20098;-41
2021/07/12 06:19:49;;;;;;;2.25;1.30;;;26.40;68.70;;;;;;5106461;28;20049;-42
2021/07/12 06:22:15;;;;;;;1.42;1.30;;;26.40;68.60;;;;;;5106074;28;20032;-40
2021/07/12 06:24:41;;;;;;;1.50;1.40;;;26.40;68.60;;;;;;5106091;28;20031;-42
2021/07/12 06:27:07;;;;;;;2.75;1.50;;;26.40;68.70;;;;;;5106294;28;20043;-41
2021/07/12 06:29:33;;;;;;;2.53;1.60;;;26.40;68.70;;;;;;5106145;28;20044;-41
2021/07/12 06:31:59;;;;;;;2.07;1.37;;;26.30;68.60;;;;;;5105925;28;20048;-40
2021/07/12 06:34:26;;;;;;;1.85;1.13;;;26.30;68.60;;;;;;5106163;28;20024;-40
2021/07/12 06:36:52;;;;;;;1.50;1.40;;;26.30;68.60;;;;;;5106371;28;20024;-41
2021/07/12 06:39:18;;;;;;;2.33;1.40;;;26.30;68.60;;;;;;5106209;28;20036;-41
2021/07/12 06:41:44;;;;;;;1.53;1.40;;;26.30;68.70;;;;;;5105644;28;20039;-40
2021/07/12 06:44:10;;;;;;;1.53;1.40;;;26.30;68.70;;;;;;5105671;28;20024;-41
2021/07/12 06:46:37;;;;;;;1.73;1.40;;;26.30;68.70;;;;;;5105902;28;20062;-41
2021/07/12 06:49:03;;;;;;;1.48;1.35;;;26.30;68.70;;;;;;5106064;28;20028;-42
2021/07/12 06:51:29;;;;;;;1.63;1.50;;;26.30;68.60;;;;;;5105740;28;20031;-40
2021/07/12 06:53:56;;;;;;;2.25;1.40;;;26.20;68.60;;;;;;5105984;28;20088;-43
2021/07/12 06:56:22;;;;;;;1.60;1.40;;;26.20;69.30;;;;;;5106007;28;20077;-41
2021/07/12 06:58:49;;;;;;;1.35;1.25;;;26.20;68.60;;;;;;5105790;28;20032;-40
2021/07/12 07:01:15;;;;;;;1.48;1.20;;;26.20;68.70;;;;;;5105675;28;20028;-42
2021/07/12 07:03:41;;;;;;;2.47;1.30;;;26.20;68.60;;;;;;5105505;28;20436;-40
2021/07/12 07:06:07;;;;;;;1.83;1.27;;;26.20;68.70;;;;;;5105633;28;20028;-41
2021/07/12 07:08:33;;;;;;;1.63;1.37;;;26.20;68.80;;;;;;5087394;28;20096;-41
2021/07/12 07:10:59;;;;;;;2.25;1.33;;;26.20;68.60;;;;;;5105702;28;20020;-40
2021/07/12 07:13:25;;;;;;;1.67;1.23;;;26.10;68.70;;;;;;5105047;28;20489;-42
2021/07/12 07:15:52;;;;;;;1.58;1.45;;;26.10;68.80;;;;;;5104884;28;20042;-42
2021/07/12 07:18:18;;;;;;;3.30;1.50;;;26.10;68.80;;;;;;5105471;28;20038;-41
2021/07/12 07:20:44;;;;;;;1.58;1.20;;;26.10;68.80;;;;;;5105466;28;20053;-41
2021/07/12 07:23:10;;;;;;;3.30;1.40;;;26.10;68.80;;;;;;5105062;28;20064;-41
2021/07/12 07:25:36;;;;;;;1.67;1.50;;;26.10;68.80;;;;;;5105394;28;20024;-42
2021/07/12 07:28:03;;;;;;;1.67;1.55;;;26.10;68.80;;;;;;5099055;28;20024;-41
2021/07/12 07:30:29;;;;;;;1.75;1.40;;;26.10;68.80;;;;;;5105079;28;20024;-42
2021/07/12 07:32:56;;;;;;;6.78;1.70;;;26.10;68.80;;;;;;5104958;28;20047;-41
2021/07/12 07:35:22;;;;;;;1.43;1.33;;;26.10;68.80;;;;;;5105278;28;20035;-41
2021/07/12 07:37:48;;;;;;;2.10;1.45;;;26.10;68.80;;;;;;5105061;28;20032;-40
2021/07/12 07:40:16;;;;;;;4.17;1.20;;;26.10;68.80;;;;;;5105224;28;20385;-41
2021/07/12 07:42:42;;;;;;;1.40;1.27;;;26.00;68.80;;;;;;5104354;28;20032;-40
2021/07/12 07:45:09;;;;;;;2.23;1.20;;;26.00;68.80;;;;;;5104962;28;20079;-41
2021/07/12 07:47:35;;;;;;;1.88;1.20;;;26.00;68.80;;;;;;5105170;28;20280;-42
2021/07/12 07:50:02;;;;;;;1.47;1.30;;;26.00;68.70;;;;;;5105083;28;20028;-41
2021/07/12 07:52:28;;;;;;;3.70;1.45;;;26.00;68.70;;;;;;5104799;28;20373;-41
2021/07/12 07:54:54;;;;;;;2.45;1.17;;;26.00;68.80;;;;;;5105046;28;20032;-40
2021/07/12 07:57:20;;;;;;;1.57;1.10;;;26.00;68.80;;;;;;5104815;28;20157;-41
2021/07/12 07:59:47;;;;;;;1.93;1.33;;;26.00;68.80;;;;;;5104522;28;20042;-41
2021/07/12 08:02:13;;;;;;;1.17;1.00;;;26.00;68.80;;;;;;5104751;28;20467;-41
2021/07/12 08:04:39;;;;;;;1.80;1.00;;;25.90;68.80;;;;;;5104439;28;20028;-41
2021/07/12 08:07:06;;;;;;;1.27;1.17;;;26.00;68.80;;;;;;5104575;28;20553;-41
2021/07/12 08:09:33;;;;;;;1.60;1.23;;;25.90;68.80;;;;;;5104736;28;20021;-41
2021/07/12 08:11:59;;;;;;;1.33;1.23;;;25.90;68.80;;;;;;5104145;28;20039;-41
2021/07/12 08:14:25;;;;;;;1.53;1.20;;;25.90;68.80;;;;;;5104365;28;20056;-40
2021/07/12 08:16:51;;;;;;;1.55;1.30;;;25.90;68.80;;;;;;5104497;28;20120;-41
2021/07/12 08:19:18;;;;;;;2.28;1.45;;;25.90;68.90;;;;;;5104357;28;20036;-41
2021/07/12 08:21:44;;;;;;;2.38;1.20;;;25.90;68.80;;;;;;5104314;28;20024;-41
2021/07/12 08:24:11;;;;;;;2.17;1.40;;;25.80;68.80;;;;;;5103908;28;20027;-42
2021/07/12 08:26:37;;;;;;;2.75;1.30;;;25.90;68.80;;;;;;5085362;28;20032;-42
2021/07/12 08:29:03;;;;;;;1.85;1.15;;;25.80;68.80;;;;;;5103856;28;20038;-42
2021/07/12 08:31:29;;;;;;;1.20;1.10;;;25.80;68.80;;;;;;5103869;28;20054;-41
2021/07/12 08:33:56;;;;;;;2.13;1.40;;;25.80;68.80;;;;;;5103642;28;20122;-41
2021/07/12 08:36:23;;;;;;;2.95;1.35;;;25.80;68.90;;;;;;5104153;28;20070;-41
2021/07/12 08:38:49;;;;;;;1.95;1.42;;;25.80;68.80;;;;;;5104047;28;20027;-40
2021/07/12 08:41:15;;;;;;;1.73;1.27;;;25.80;68.90;;;;;;5103806;28;20024;-42
2021/07/12 08:43:41;;;;;;;1.30;1.17;;;25.80;68.90;;;;;;5103453;28;20035;-41
2021/07/12 08:46:08;;;;;;;4.28;1.40;;;25.80;68.80;;;;;;5103827;28;20031;-41
2021/07/12 08:48:34;;;;;;;1.90;1.38;;;25.80;68.90;;;;;;5103905;28;20031;-42
2021/07/12 08:51:01;;;;;;;1.58;1.42;;;25.70;68.80;;;;;;5103859;28;20052;-41
2021/07/12 08:53:27;;;;;;;1.37;1.20;;;25.70;68.80;;;;;;5103573;28;20023;-42
2021/07/12 08:55:53;;;;;;;1.30;1.20;;;25.80;68.90;;;;;;5085520;28;20062;-41
2021/07/12 08:58:24;;;;;;;1.83;1.58;;;25.70;68.80;;;;;;5103559;28;20048;-41
2021/07/12 09:01:09;;;;;;;1.17;1.08;;;25.70;68.90;;;;;;5085419;28;20031;-41
2021/07/12 09:03:37;;;;;;;2.17;1.20;;;25.70;68.90;;;;;;5103109;28;20484;-40
2021/07/12 09:06:08;;;;;;;1.88;1.25;;;25.70;68.90;;;;;;5103514;28;20028;-40
2021/07/12 09:08:51;;;;;;;1.33;0.98;;;25.70;68.90;;;;;;5103409;28;20040;-42
2021/07/12 09:11:30;;;;;;;1.20;1.05;;;25.70;68.90;;;;;;5103341;28;20110;-41
2021/07/12 09:14:00;;;;;;;1.65;1.30;;;25.70;69.00;;;;;;5103091;28;20024;-41
2021/07/12 09:16:48;;;;;;;1.60;1.50;;;25.70;69.00;;;;;;5103102;28;20032;-42
2021/07/12 09:19:22;;;;;;;1.80;1.27;;;25.60;68.90;;;;;;5102793;28;20044;-40
2021/07/12 09:21:55;;;;;;;1.95;1.23;;;25.60;68.90;;;;;;5102760;28;20028;-41
2021/07/12 09:24:26;;;;;;;3.55;1.52;;;25.60;68.80;;;;;;5102656;28;20016;-41
2021/07/12 09:26:55;;;;;;;1.30;1.20;;;25.60;68.90;;;;;;5103040;28;20031;-41
2021/07/12 09:29:24;;;;;;;1.98;1.17;;;25.60;68.90;;;;;;5085167;28;20028;-41
2021/07/12 09:31:50;;;;;;;2.10;1.30;;;25.60;69.20;;;;;;5102793;28;20023;-42
2021/07/12 09:34:18;;;;;;;1.30;1.20;;;25.60;69.00;;;;;;5103015;28;20035;-41
2021/07/12 09:36:44;;;;;;;1.35;1.25;;;25.60;69.00;;;;;;5103100;28;20028;-41
2021/07/12 09:39:23;;;;;;;1.30;1.20;;;25.60;68.90;;;;;;5105359;28;20024;-41
2021/07/12 09:41:54;;;;;;;1.58;1.25;;;25.60;69.00;;;;;;5107029;28;20050;-40
2021/07/12 09:44:21;;;;;;;1.63;1.38;;;25.60;69.50;;;;;;5106529;28;20083;-40
2021/07/12 09:46:47;;;;;;;;;;;25.50;68.90;;;;;;5107548;28;20557;-40
2021/07/12 09:49:15;;;;;;;1.20;1.10;;;25.50;69.60;;;;;;5088938;28;19908;-41
2021/07/12 09:51:42;;;;;;;2.13;1.17;;;25.50;69.00;;;;;;5107003;28;20020;-41
2021/07/12 09:54:26;;;;;;;1.20;1.10;;;25.50;69.00;;;;;;5106684;28;20032;-42
2021/07/12 09:56:56;;;;;;;1.33;1.08;;;25.50;69.00;;;;;;5107098;28;20035;-41
2021/07/12 09:59:22;;;;;;;1.27;1.08;;;25.50;69.00;;;;;;5106938;28;20087;-41
2021/07/12 10:01:57;;;;;;;2.33;1.20;;;25.50;69.10;;;;;;5106642;28;20107;-41
2021/07/12 10:04:23;;;;;;;1.25;1.10;;;25.50;69.10;;;;;;5106663;28;20036;-40
2021/07/12 10:06:51;;;;;;;1.77;1.30;;;25.40;69.00;;;;;;5106979;28;20024;-42
2021/07/12 10:09:22;;;;;;;1.83;1.10;;;25.40;69.00;;;;;;5106895;28;20431;-42
2021/07/12 10:11:52;;;;;;;2.30;1.40;;;25.50;69.10;;;;;;5106663;28;20032;-42
2021/07/12 10:14:19;;;;;;;1.90;1.27;;;25.40;69.10;;;;;;5106482;28;20056;-40
2021/07/12 10:16:45;;;;;;;1.27;1.13;;;25.40;69.00;;;;;;5106686;28;20447;-41
2021/07/12 10:19:11;;;;;;;2.60;1.50;;;25.40;69.10;;;;;;5106616;28;20257;-46
2021/07/12 10:21:50;;;;;;;1.30;1.20;;;25.40;69.10;;;;;;5106430;28;20039;-42
2021/07/12 10:24:19;;;;;;;1.50;1.33;;;25.40;69.10;;;;;;5106541;28;20031;-41
2021/07/12 10:26:48;;;;;;;1.55;1.08;;;25.40;69.10;;;;;;5105981;28;20035;-42
2021/07/12 10:29:38;;;;;;;1.33;1.20;;;25.40;69.10;;;;;;5106524;28;20044;-41
2021/07/12 10:32:15;;;;;;;1.40;1.20;;;25.40;69.10;;;;;;5090612;28;20079;-41
2021/07/12 10:34:55;;;;;;;2.57;1.30;;;25.40;69.10;;;;;;5105895;28;20027;-41
2021/07/12 10:37:29;;;;;;;1.23;1.00;;;25.40;69.20;;;;;;5106395;28;20263;-40
2021/07/12 10:40:15;;;;;;;1.42;1.02;;;25.30;69.10;;;;;;5087929;28;20028;-41
2021/07/12 10:42:44;;;;;;;1.75;1.30;;;25.30;69.10;;;;;;5105937;28;20032;-42
2021/07/12 10:45:11;;;;;;;1.58;1.15;;;25.30;69.80;;;;;;5105772;28;20028;-42
2021/07/12 10:47:45;;;;;;;1.92;1.25;;;25.30;69.00;;;;;;5106163;28;20036;-41
2021/07/12 10:50:33;;;;;;;1.50;1.20;;;25.30;69.10;;;;;;5105313;28;20021;-42
2021/07/12 10:53:00;;;;;;;1.55;1.17;;;25.30;69.10;;;;;;5105825;28;20028;-41
2021/07/12 10:55:31;;;;;;;2.40;1.38;;;25.30;69.20;;;;;;5087741;28;20035;-42
2021/07/12 10:58:18;;;;;;;1.58;1.23;;;25.30;69.20;;;;;;5087897;28;20035;-41
2021/07/12 11:00:50;;;;;;;1.13;1.00;;;25.20;69.10;;;;;;5105922;28;20114;-42
2021/07/12 11:03:35;;;;;;;1.90;1.40;;;25.20;69.20;;;;;;5105917;28;20298;-41
2021/07/12 11:06:08;;;;;;;1.30;1.20;;;25.20;69.10;;;;;;5105566;28;20031;-41
2021/07/12 11:08:50;;;;;;;1.65;1.08;;;25.20;69.20;;;;;;5105809;28;20028;-41
2021/07/12 11:11:19;;;;;;;1.48;1.10;;;25.20;69.20;;;;;;5105522;28;20165;-42
2021/07/12 11:13:56;;;;;;;1.40;1.30;;;25.20;69.20;;;;;;5104943;28;20358;-41
2021/07/12 11:16:28;;;;;;;3.15;1.20;;;25.20;69.30;;;;;;5104968;28;20092;-41
2021/07/12 11:18:54;;;;;;;1.30;1.20;;;25.20;69.20;;;;;;5105529;28;20046;-42
2021/07/12 11:21:35;;;;;;;1.52;1.35;;;25.20;69.30;;;;;;5105462;28;20024;-41
2021/07/12 11:24:10;;;;;;;1.20;1.00;;;25.20;69.30;;;;;;5105021;28;20087;-41
2021/07/12 11:26:38;;;;;;;1.40;1.30;;;25.20;69.30;;;;;;5084859;28;20093;-43
2021/07/12 11:29:16;;;;;;;2.20;1.15;;;25.20;69.40;;;;;;5067079;28;20056;-41
2021/07/12 11:31:55;;;;;;;1.75;1.30;;;25.20;69.40;;;;;;5084636;28;20021;-43
2021/07/12 11:34:42;;;;;;;2.20;1.38;;;25.20;69.30;;;;;;5071263;28;20020;-41
2021/07/12 11:37:10;;;;;;;1.20;1.05;;;25.20;69.40;;;;;;5105034;28;20035;-41
2021/07/12 11:39:42;;;;;;;1.38;1.20;;;25.20;69.40;;;;;;5104997;28;20027;-42
2021/07/12 11:42:22;;;;;;;1.75;1.30;;;25.10;69.30;;;;;;5105131;28;20029;-41
2021/07/12 11:44:55;;;;;;;1.42;1.10;;;25.10;69.40;;;;;;5084805;28;20025;-42
2021/07/12 11:47:33;;;;;;;1.55;1.33;;;25.10;69.40;;;;;;5084219;28;20028;-41
2021/07/12 11:50:02;;;;;;;1.40;1.30;;;25.20;69.50;;;;;;5084668;28;20029;-42
2021/07/12 11:52:28;;;;;;;1.38;1.20;;;25.10;69.40;;;;;;5084542;28;20880;-41
2021/07/12 11:55:11;;;;;;;2.10;1.50;;;25.10;69.30;;;;;;5084428;28;20028;-42
2021/07/12 11:57:37;;;;;;;1.73;0.98;;;25.10;69.30;;;;;;5084037;28;20092;-42
2021/07/12 12:00:12;;;;;;;2.58;1.33;;;25.10;69.50;;;;;;5084313;28;20035;-41
2021/07/12 12:02:39;;;;;;;1.30;1.20;;;25.10;69.50;;;;;;5083069;28;20098;-41
2021/07/12 12:05:09;;;;;;;1.20;1.02;;;25.10;69.50;;;;;;5094791;28;20078;-41
2021/07/12 12:07:48;;;;;;;1.20;1.10;;;25.10;69.60;;;;;;5104160;28;20480;-43
2021/07/12 12:10:15;;;;;;;2.03;1.33;;;25.10;69.60;;;;;;5104121;28;20392;-45
2021/07/12 12:12:47;;;;;;;1.42;1.20;;;25.10;69.50;;;;;;5104222;28;20107;-41
2021/07/12 12:15:17;;;;;;;1.42;1.30;;;25.10;69.60;;;;;;5104413;28;20077;-42
2021/07/12 12:17:46;;;;;;;1.30;1.20;;;25.10;70.30;;;;;;5103215;28;20028;-41
2021/07/12 12:20:18;;;;;;;1.67;1.33;;;25.10;69.60;;;;;;5104213;28;20027;-41
2021/07/12 12:23:03;;;;;;;1.95;1.30;;;25.10;69.60;;;;;;5098360;28;20564;-43
2021/07/12 12:25:51;;;;;;;1.30;1.20;;;25.10;69.60;;;;;;5103002;28;20062;-41
2021/07/12 12:29:06;;;;;;;2.67;1.10;;;25.10;69.60;;;;;;5090209;28;20040;-41
2021/07/12 12:31:32;;;;;;;1.55;1.35;;;25.10;69.60;;;;;;5101744;28;20416;-43
2021/07/12 12:34:10;;;;;;;2.45;1.42;;;25.10;69.60;;;;;;5103709;28;20052;-42
2021/07/12 12:36:38;;;;;;;1.45;1.27;;;25.10;69.60;;;;;;5103702;28;20107;-41
2021/07/12 12:39:14;;;;;;;1.83;1.25;;;25.10;69.60;;;;;;5103828;28;20019;-41
2021/07/12 12:41:55;;;;;;;1.73;1.40;;;25.10;69.60;;;;;;5103512;28;20028;-40
2021/07/12 12:44:22;;;;;;;2.10;1.05;;;25.10;69.70;;;;;;5085435;28;20032;-42
2021/07/12 12:46:55;;;;;;;2.60;1.40;;;25.10;69.70;;;;;;5106286;28;20066;-41
2021/07/12 12:49:31;;;;;;;1.60;1.13;;;25.10;69.80;;;;;;5103557;28;20028;-42
2021/07/12 12:52:15;;;;;;;1.30;1.20;;;25.10;69.90;;;;;;5103551;28;20031;-41
2021/07/12 12:54:43;;;;;;;1.67;1.13;;;25.10;69.90;;;;;;5103556;28;20024;-41
2021/07/12 12:57:10;;;;;;;1.33;1.23;;;25.10;69.90;;;;;;5085289;28;20032;-41
2021/07/12 12:59:37;;;;;;;1.30;1.20;;;25.10;69.90;;;;;;5085093;28;20024;-41
2021/07/12 13:02:07;;;;;;;2.92;1.23;;;25.20;69.90;;;;;;5103317;28;20280;-41